sensor_id;sensor_type;location;lat;lon;timestamp;P1;durP1;ratioP1;P2;durP2;ratioP2
19509;SDS011;9896;42.486;26.506;2023-01-08T00:00:55;29.30;;;16.00;;
19509;SDS011;9896;42.486;26.506;2023-01-08T00:03:21;27.70;;;16.53;;
19509;SDS011;9896;42.486;26.506;2023-01-08T00:05:47;30.13;;;19.40;;
19509;SDS011;9896;42.486;26.506;2023-01-08T00:08:12;34.50;;;17.53;;
19509;SDS011;9896;42.486;26.506;2023-01-08T00:10:38;27.70;;;17.83;;
19509;SDS011;9896;42.486;26.506;2023-01-08T00:13:03;29.67;;;17.23;;
19509;SDS011;9896;42.486;26.506;2023-01-08T00:15:29;27.40;;;15.50;;
19509;SDS011;9896;42.486;26.506;2023-01-08T00:17:55;29.73;;;16.90;;
19509;SDS011;9896;42.486;26.506;2023-01-08T00:20:20;30.03;;;17.57;;
19509;SDS011;9896;42.486;26.506;2023-01-08T00:22:49;25.17;;;14.67;;
19509;SDS011;9896;42.486;26.506;2023-01-08T00:25:15;29.43;;;15.33;;
19509;SDS011;9896;42.486;26.506;2023-01-08T00:27:40;32.97;;;16.37;;
19509;SDS011;9896;42.486;26.506;2023-01-08T00:30:05;28.57;;;14.00;;
19509;SDS011;9896;42.486;26.506;2023-01-08T00:32:31;28.73;;;17.17;;
19509;SDS011;9896;42.486;26.506;2023-01-08T00:34:57;24.40;;;14.33;;
19509;SDS011;9896;42.486;26.506;2023-01-08T00:37:22;20.60;;;13.30;;
19509;SDS011;9896;42.486;26.506;2023-01-08T00:39:47;26.23;;;15.30;;
19509;SDS011;9896;42.486;26.506;2023-01-08T00:42:13;29.10;;;16.43;;
19509;SDS011;9896;42.486;26.506;2023-01-08T00:44:38;28.53;;;16.80;;
19509;SDS011;9896;42.486;26.506;2023-01-08T00:47:04;34.30;;;19.30;;
19509;SDS011;9896;42.486;26.506;2023-01-08T00:49:29;29.67;;;17.27;;
19509;SDS011;9896;42.486;26.506;2023-01-08T00:51:54;26.70;;;13.37;;
19509;SDS011;9896;42.486;26.506;2023-01-08T00:54:20;24.13;;;15.47;;
19509;SDS011;9896;42.486;26.506;2023-01-08T00:56:45;28.87;;;14.47;;
19509;SDS011;9896;42.486;26.506;2023-01-08T00:59:11;23.27;;;14.13;;
19509;SDS011;9896;42.486;26.506;2023-01-08T01:01:36;23.80;;;13.40;;
19509;SDS011;9896;42.486;26.506;2023-01-08T01:04:02;22.93;;;13.13;;
19509;SDS011;9896;42.486;26.506;2023-01-08T01:06:27;26.07;;;13.60;;
19509;SDS011;9896;42.486;26.506;2023-01-08T01:08:53;21.80;;;13.10;;
19509;SDS011;9896;42.486;26.506;2023-01-08T01:11:22;26.40;;;14.03;;
19509;SDS011;9896;42.486;26.506;2023-01-08T01:13:48;17.97;;;12.40;;
19509;SDS011;9896;42.486;26.506;2023-01-08T01:16:13;25.87;;;14.10;;
19509;SDS011;9896;42.486;26.506;2023-01-08T01:18:39;27.40;;;14.97;;
19509;SDS011;9896;42.486;26.506;2023-01-08T01:21:11;29.20;;;16.50;;
19509;SDS011;9896;42.486;26.506;2023-01-08T01:23:37;25.83;;;15.10;;
19509;SDS011;9896;42.486;26.506;2023-01-08T01:26:02;27.00;;;14.43;;
19509;SDS011;9896;42.486;26.506;2023-01-08T01:28:27;24.90;;;15.63;;
19509;SDS011;9896;42.486;26.506;2023-01-08T01:30:53;26.33;;;15.80;;
19509;SDS011;9896;42.486;26.506;2023-01-08T01:33:19;34.53;;;16.07;;
19509;SDS011;9896;42.486;26.506;2023-01-08T01:35:45;27.97;;;15.20;;
19509;SDS011;9896;42.486;26.506;2023-01-08T01:38:10;32.33;;;16.07;;
19509;SDS011;9896;42.486;26.506;2023-01-08T01:40:40;24.70;;;15.90;;
19509;SDS011;9896;42.486;26.506;2023-01-08T01:43:07;38.03;;;18.07;;
19509;SDS011;9896;42.486;26.506;2023-01-08T01:45:33;41.17;;;18.80;;
19509;SDS011;9896;42.486;26.506;2023-01-08T01:48:00;47.47;;;21.37;;
19509;SDS011;9896;42.486;26.506;2023-01-08T01:50:31;41.33;;;20.57;;
19509;SDS011;9896;42.486;26.506;2023-01-08T01:52:59;45.13;;;21.20;;
19509;SDS011;9896;42.486;26.506;2023-01-08T01:55:25;35.30;;;19.80;;
19509;SDS011;9896;42.486;26.506;2023-01-08T01:57:52;39.33;;;19.70;;
19509;SDS011;9896;42.486;26.506;2023-01-08T02:00:19;37.20;;;21.00;;
19509;SDS011;9896;42.486;26.506;2023-01-08T02:02:44;40.93;;;22.90;;
19509;SDS011;9896;42.486;26.506;2023-01-08T02:05:10;36.40;;;21.53;;
19509;SDS011;9896;42.486;26.506;2023-01-08T02:07:47;47.37;;;25.73;;
19509;SDS011;9896;42.486;26.506;2023-01-08T02:10:16;41.53;;;24.37;;
19509;SDS011;9896;42.486;26.506;2023-01-08T02:12:44;39.03;;;22.00;;
19509;SDS011;9896;42.486;26.506;2023-01-08T02:15:19;35.20;;;19.93;;
19509;SDS011;9896;42.486;26.506;2023-01-08T02:28:13;38.07;;;23.23;;
19509;SDS011;9896;42.486;26.506;2023-01-08T02:30:39;44.20;;;22.80;;
19509;SDS011;9896;42.486;26.506;2023-01-08T02:33:05;41.17;;;23.90;;
19509;SDS011;9896;42.486;26.506;2023-01-08T02:35:36;41.00;;;24.37;;
19509;SDS011;9896;42.486;26.506;2023-01-08T02:38:02;47.07;;;26.13;;
19509;SDS011;9896;42.486;26.506;2023-01-08T02:40:29;42.83;;;25.83;;
19509;SDS011;9896;42.486;26.506;2023-01-08T02:45:36;47.57;;;26.67;;
19509;SDS011;9896;42.486;26.506;2023-01-08T02:50:39;59.00;;;29.80;;
19509;SDS011;9896;42.486;26.506;2023-01-08T02:53:17;54.50;;;26.93;;
19509;SDS011;9896;42.486;26.506;2023-01-08T02:55:48;48.33;;;24.67;;
19509;SDS011;9896;42.486;26.506;2023-01-08T02:58:14;47.57;;;25.07;;
19509;SDS011;9896;42.486;26.506;2023-01-08T03:00:40;45.40;;;24.13;;
19509;SDS011;9896;42.486;26.506;2023-01-08T03:03:16;40.77;;;23.33;;
19509;SDS011;9896;42.486;26.506;2023-01-08T03:05:44;46.17;;;23.10;;
19509;SDS011;9896;42.486;26.506;2023-01-08T03:08:09;45.67;;;23.07;;
19509;SDS011;9896;42.486;26.506;2023-01-08T03:10:36;42.97;;;24.63;;
19509;SDS011;9896;42.486;26.506;2023-01-08T03:13:03;52.83;;;26.13;;
19509;SDS011;9896;42.486;26.506;2023-01-08T03:15:31;44.50;;;23.43;;
19509;SDS011;9896;42.486;26.506;2023-01-08T03:17:59;43.37;;;24.57;;
19509;SDS011;9896;42.486;26.506;2023-01-08T03:20:26;43.50;;;22.80;;
19509;SDS011;9896;42.486;26.506;2023-01-08T03:22:53;34.00;;;20.83;;
19509;SDS011;9896;42.486;26.506;2023-01-08T03:25:19;36.53;;;20.03;;
19509;SDS011;9896;42.486;26.506;2023-01-08T03:27:46;44.47;;;21.07;;
19509;SDS011;9896;42.486;26.506;2023-01-08T03:30:12;42.10;;;22.13;;
19509;SDS011;9896;42.486;26.506;2023-01-08T03:32:38;41.47;;;21.50;;
19509;SDS011;9896;42.486;26.506;2023-01-08T03:35:06;41.20;;;21.60;;
19509;SDS011;9896;42.486;26.506;2023-01-08T03:37:35;32.97;;;18.77;;
19509;SDS011;9896;42.486;26.506;2023-01-08T03:42:27;29.03;;;15.50;;
19509;SDS011;9896;42.486;26.506;2023-01-08T03:44:54;29.70;;;15.53;;
19509;SDS011;9896;42.486;26.506;2023-01-08T03:47:19;22.47;;;13.73;;
19509;SDS011;9896;42.486;26.506;2023-01-08T03:49:46;29.10;;;15.97;;
19509;SDS011;9896;42.486;26.506;2023-01-08T03:52:20;34.00;;;17.83;;
19509;SDS011;9896;42.486;26.506;2023-01-08T03:54:45;30.90;;;13.97;;
19509;SDS011;9896;42.486;26.506;2023-01-08T03:57:10;28.60;;;14.63;;
19509;SDS011;9896;42.486;26.506;2023-01-08T03:59:36;22.67;;;14.33;;
19509;SDS011;9896;42.486;26.506;2023-01-08T04:02:01;20.90;;;13.37;;
19509;SDS011;9896;42.486;26.506;2023-01-08T04:04:27;23.87;;;12.63;;
19509;SDS011;9896;42.486;26.506;2023-01-08T04:06:52;21.87;;;12.43;;
19509;SDS011;9896;42.486;26.506;2023-01-08T04:09:18;24.17;;;13.90;;
19509;SDS011;9896;42.486;26.506;2023-01-08T04:11:43;18.87;;;11.80;;
19509;SDS011;9896;42.486;26.506;2023-01-08T04:14:08;23.10;;;12.83;;
19509;SDS011;9896;42.486;26.506;2023-01-08T04:16:36;19.93;;;11.37;;
19509;SDS011;9896;42.486;26.506;2023-01-08T04:19:01;21.97;;;11.27;;
19509;SDS011;9896;42.486;26.506;2023-01-08T04:21:26;18.13;;;11.50;;
19509;SDS011;9896;42.486;26.506;2023-01-08T04:23:53;20.97;;;12.57;;
19509;SDS011;9896;42.486;26.506;2023-01-08T04:26:18;22.00;;;12.40;;
19509;SDS011;9896;42.486;26.506;2023-01-08T04:28:44;19.03;;;11.77;;
19509;SDS011;9896;42.486;26.506;2023-01-08T04:31:09;22.77;;;11.63;;
19509;SDS011;9896;42.486;26.506;2023-01-08T04:33:35;24.00;;;12.93;;
19509;SDS011;9896;42.486;26.506;2023-01-08T04:36:01;19.73;;;12.03;;
19509;SDS011;9896;42.486;26.506;2023-01-08T04:38:26;24.47;;;12.93;;
19509;SDS011;9896;42.486;26.506;2023-01-08T04:40:55;22.17;;;12.27;;
19509;SDS011;9896;42.486;26.506;2023-01-08T04:43:21;22.23;;;12.60;;
19509;SDS011;9896;42.486;26.506;2023-01-08T04:45:46;18.70;;;11.57;;
19509;SDS011;9896;42.486;26.506;2023-01-08T04:48:12;23.00;;;11.60;;
19509;SDS011;9896;42.486;26.506;2023-01-08T04:50:37;15.93;;;9.97;;
19509;SDS011;9896;42.486;26.506;2023-01-08T04:53:02;18.70;;;8.77;;
19509;SDS011;9896;42.486;26.506;2023-01-08T04:55:28;16.33;;;10.33;;
19509;SDS011;9896;42.486;26.506;2023-01-08T04:57:53;21.13;;;12.73;;
19509;SDS011;9896;42.486;26.506;2023-01-08T05:00:19;21.37;;;12.40;;
19509;SDS011;9896;42.486;26.506;2023-01-08T05:02:44;21.97;;;12.20;;
19509;SDS011;9896;42.486;26.506;2023-01-08T05:05:09;23.77;;;13.67;;
19509;SDS011;9896;42.486;26.506;2023-01-08T05:07:35;23.53;;;13.67;;
19509;SDS011;9896;42.486;26.506;2023-01-08T05:10:00;24.30;;;14.23;;
19509;SDS011;9896;42.486;26.506;2023-01-08T05:12:25;24.83;;;14.57;;
19509;SDS011;9896;42.486;26.506;2023-01-08T05:14:51;25.33;;;15.10;;
19509;SDS011;9896;42.486;26.506;2023-01-08T05:17:16;27.93;;;17.00;;
19509;SDS011;9896;42.486;26.506;2023-01-08T05:19:42;27.63;;;16.53;;
19509;SDS011;9896;42.486;26.506;2023-01-08T05:22:07;28.43;;;17.83;;
19509;SDS011;9896;42.486;26.506;2023-01-08T05:24:32;28.73;;;17.83;;
19509;SDS011;9896;42.486;26.506;2023-01-08T05:26:57;31.13;;;18.20;;
19509;SDS011;9896;42.486;26.506;2023-01-08T05:29:23;35.50;;;20.27;;
19509;SDS011;9896;42.486;26.506;2023-01-08T05:31:48;43.67;;;24.07;;
19509;SDS011;9896;42.486;26.506;2023-01-08T05:34:14;43.20;;;24.20;;
19509;SDS011;9896;42.486;26.506;2023-01-08T05:36:39;42.27;;;23.13;;
19509;SDS011;9896;42.486;26.506;2023-01-08T05:39:04;41.03;;;22.53;;
19509;SDS011;9896;42.486;26.506;2023-01-08T05:41:30;54.87;;;28.50;;
19509;SDS011;9896;42.486;26.506;2023-01-08T05:43:55;44.70;;;24.70;;
19509;SDS011;9896;42.486;26.506;2023-01-08T05:46:20;46.13;;;23.13;;
19509;SDS011;9896;42.486;26.506;2023-01-08T05:48:46;43.57;;;23.60;;
19509;SDS011;9896;42.486;26.506;2023-01-08T05:51:11;50.57;;;26.17;;
19509;SDS011;9896;42.486;26.506;2023-01-08T05:53:37;52.03;;;27.43;;
19509;SDS011;9896;42.486;26.506;2023-01-08T05:56:04;58.27;;;29.30;;
19509;SDS011;9896;42.486;26.506;2023-01-08T05:58:29;44.13;;;27.17;;
19509;SDS011;9896;42.486;26.506;2023-01-08T06:00:59;49.23;;;28.97;;
19509;SDS011;9896;42.486;26.506;2023-01-08T06:03:25;51.57;;;27.83;;
19509;SDS011;9896;42.486;26.506;2023-01-08T06:05:50;55.13;;;29.97;;
19509;SDS011;9896;42.486;26.506;2023-01-08T06:08:16;39.43;;;22.20;;
19509;SDS011;9896;42.486;26.506;2023-01-08T06:10:41;56.23;;;30.53;;
19509;SDS011;9896;42.486;26.506;2023-01-08T06:13:07;61.37;;;32.53;;
19509;SDS011;9896;42.486;26.506;2023-01-08T06:15:32;65.33;;;37.23;;
19509;SDS011;9896;42.486;26.506;2023-01-08T06:18:00;63.83;;;32.93;;
19509;SDS011;9896;42.486;26.506;2023-01-08T06:20:26;60.10;;;34.00;;
19509;SDS011;9896;42.486;26.506;2023-01-08T06:22:52;56.80;;;29.67;;
19509;SDS011;9896;42.486;26.506;2023-01-08T06:25:17;50.53;;;28.40;;
19509;SDS011;9896;42.486;26.506;2023-01-08T06:27:43;39.93;;;22.07;;
19509;SDS011;9896;42.486;26.506;2023-01-08T06:30:08;37.83;;;20.67;;
19509;SDS011;9896;42.486;26.506;2023-01-08T06:32:33;36.07;;;20.53;;
19509;SDS011;9896;42.486;26.506;2023-01-08T06:34:59;30.43;;;18.43;;
19509;SDS011;9896;42.486;26.506;2023-01-08T06:37:24;31.23;;;18.87;;
19509;SDS011;9896;42.486;26.506;2023-01-08T06:39:49;29.60;;;17.23;;
19509;SDS011;9896;42.486;26.506;2023-01-08T06:42:15;38.00;;;20.50;;
19509;SDS011;9896;42.486;26.506;2023-01-08T06:44:40;33.77;;;20.70;;
19509;SDS011;9896;42.486;26.506;2023-01-08T06:47:06;37.87;;;20.43;;
19509;SDS011;9896;42.486;26.506;2023-01-08T06:49:31;35.63;;;21.47;;
19509;SDS011;9896;42.486;26.506;2023-01-08T06:51:56;33.20;;;20.80;;
19509;SDS011;9896;42.486;26.506;2023-01-08T06:54:22;36.53;;;21.37;;
19509;SDS011;9896;42.486;26.506;2023-01-08T06:56:47;47.23;;;26.10;;
19509;SDS011;9896;42.486;26.506;2023-01-08T06:59:13;57.13;;;30.67;;
19509;SDS011;9896;42.486;26.506;2023-01-08T07:01:38;157.03;;;72.30;;
19509;SDS011;9896;42.486;26.506;2023-01-08T07:04:05;215.47;;;103.83;;
19509;SDS011;9896;42.486;26.506;2023-01-08T07:06:30;165.43;;;84.87;;
19509;SDS011;9896;42.486;26.506;2023-01-08T07:08:55;153.53;;;79.80;;
19509;SDS011;9896;42.486;26.506;2023-01-08T07:11:21;136.17;;;67.40;;
19509;SDS011;9896;42.486;26.506;2023-01-08T07:13:46;101.60;;;51.23;;
19509;SDS011;9896;42.486;26.506;2023-01-08T07:16:12;81.50;;;46.00;;
19509;SDS011;9896;42.486;26.506;2023-01-08T07:18:38;72.90;;;39.90;;
19509;SDS011;9896;42.486;26.506;2023-01-08T07:21:05;61.27;;;33.00;;
19509;SDS011;9896;42.486;26.506;2023-01-08T07:23:30;65.07;;;32.23;;
19509;SDS011;9896;42.486;26.506;2023-01-08T07:25:59;35.73;;;21.40;;
19509;SDS011;9896;42.486;26.506;2023-01-08T07:28:25;32.73;;;17.37;;
19509;SDS011;9896;42.486;26.506;2023-01-08T07:30:51;30.70;;;16.47;;
19509;SDS011;9896;42.486;26.506;2023-01-08T07:33:16;32.97;;;20.20;;
19509;SDS011;9896;42.486;26.506;2023-01-08T07:35:42;32.53;;;18.70;;
19509;SDS011;9896;42.486;26.506;2023-01-08T07:38:07;27.33;;;17.10;;
19509;SDS011;9896;42.486;26.506;2023-01-08T07:40:32;38.57;;;20.10;;
19509;SDS011;9896;42.486;26.506;2023-01-08T07:43:02;35.20;;;20.03;;
19509;SDS011;9896;42.486;26.506;2023-01-08T07:45:28;37.40;;;20.90;;
19509;SDS011;9896;42.486;26.506;2023-01-08T07:47:55;39.93;;;20.87;;
19509;SDS011;9896;42.486;26.506;2023-01-08T07:50:20;36.20;;;20.97;;
19509;SDS011;9896;42.486;26.506;2023-01-08T07:52:46;37.97;;;19.60;;
19509;SDS011;9896;42.486;26.506;2023-01-08T07:55:11;35.63;;;20.10;;
19509;SDS011;9896;42.486;26.506;2023-01-08T07:57:36;33.97;;;18.80;;
19509;SDS011;9896;42.486;26.506;2023-01-08T08:00:02;33.17;;;20.77;;
19509;SDS011;9896;42.486;26.506;2023-01-08T08:02:27;32.93;;;20.17;;
19509;SDS011;9896;42.486;26.506;2023-01-08T08:04:53;30.93;;;18.87;;
19509;SDS011;9896;42.486;26.506;2023-01-08T08:07:18;30.70;;;19.13;;
19509;SDS011;9896;42.486;26.506;2023-01-08T08:09:43;31.97;;;17.83;;
19509;SDS011;9896;42.486;26.506;2023-01-08T08:12:08;37.33;;;19.97;;
19509;SDS011;9896;42.486;26.506;2023-01-08T08:14:34;38.77;;;21.67;;
19509;SDS011;9896;42.486;26.506;2023-01-08T08:16:59;34.53;;;20.43;;
19509;SDS011;9896;42.486;26.506;2023-01-08T08:19:25;34.30;;;21.00;;
19509;SDS011;9896;42.486;26.506;2023-01-08T08:21:50;41.87;;;22.27;;
19509;SDS011;9896;42.486;26.506;2023-01-08T08:24:15;39.27;;;21.60;;
19509;SDS011;9896;42.486;26.506;2023-01-08T08:26:41;37.47;;;21.57;;
19509;SDS011;9896;42.486;26.506;2023-01-08T08:29:06;34.73;;;21.47;;
19509;SDS011;9896;42.486;26.506;2023-01-08T08:31:32;39.23;;;23.43;;
19509;SDS011;9896;42.486;26.506;2023-01-08T08:33:57;40.40;;;23.17;;
19509;SDS011;9896;42.486;26.506;2023-01-08T08:36:29;42.53;;;24.93;;
19509;SDS011;9896;42.486;26.506;2023-01-08T08:38:54;49.87;;;28.20;;
19509;SDS011;9896;42.486;26.506;2023-01-08T08:41:20;51.73;;;28.90;;
19509;SDS011;9896;42.486;26.506;2023-01-08T08:43:45;47.90;;;28.70;;
19509;SDS011;9896;42.486;26.506;2023-01-08T08:46:11;41.17;;;24.87;;
19509;SDS011;9896;42.486;26.506;2023-01-08T08:48:36;43.37;;;24.43;;
19509;SDS011;9896;42.486;26.506;2023-01-08T08:51:02;41.73;;;25.53;;
19509;SDS011;9896;42.486;26.506;2023-01-08T08:53:28;41.40;;;25.10;;
19509;SDS011;9896;42.486;26.506;2023-01-08T08:55:53;40.07;;;24.70;;
19509;SDS011;9896;42.486;26.506;2023-01-08T08:58:19;49.40;;;26.50;;
19509;SDS011;9896;42.486;26.506;2023-01-08T09:00:44;41.43;;;24.47;;
19509;SDS011;9896;42.486;26.506;2023-01-08T09:03:13;45.07;;;26.33;;
19509;SDS011;9896;42.486;26.506;2023-01-08T09:05:39;45.07;;;26.23;;
19509;SDS011;9896;42.486;26.506;2023-01-08T09:08:04;48.93;;;25.97;;
19509;SDS011;9896;42.486;26.506;2023-01-08T09:10:30;44.97;;;25.00;;
19509;SDS011;9896;42.486;26.506;2023-01-08T09:12:55;38.43;;;24.50;;
19509;SDS011;9896;42.486;26.506;2023-01-08T09:15:21;52.77;;;29.57;;
19509;SDS011;9896;42.486;26.506;2023-01-08T09:17:55;55.70;;;32.03;;
19509;SDS011;9896;42.486;26.506;2023-01-08T09:20:21;55.13;;;32.80;;
19509;SDS011;9896;42.486;26.506;2023-01-08T09:22:47;60.33;;;31.93;;
19509;SDS011;9896;42.486;26.506;2023-01-08T09:25:12;58.10;;;36.37;;
19509;SDS011;9896;42.486;26.506;2023-01-08T09:27:38;62.20;;;37.33;;
19509;SDS011;9896;42.486;26.506;2023-01-08T09:30:03;69.33;;;39.33;;
19509;SDS011;9896;42.486;26.506;2023-01-08T09:32:29;71.00;;;40.90;;
19509;SDS011;9896;42.486;26.506;2023-01-08T09:34:54;76.57;;;42.27;;
19509;SDS011;9896;42.486;26.506;2023-01-08T09:37:20;73.63;;;42.60;;
19509;SDS011;9896;42.486;26.506;2023-01-08T09:39:47;73.30;;;42.30;;
19509;SDS011;9896;42.486;26.506;2023-01-08T09:42:13;69.00;;;39.27;;
19509;SDS011;9896;42.486;26.506;2023-01-08T09:44:39;67.20;;;40.07;;
19509;SDS011;9896;42.486;26.506;2023-01-08T09:47:05;68.93;;;39.70;;
19509;SDS011;9896;42.486;26.506;2023-01-08T09:49:41;71.37;;;39.73;;
19509;SDS011;9896;42.486;26.506;2023-01-08T09:52:10;65.80;;;39.77;;
19509;SDS011;9896;42.486;26.506;2023-01-08T09:54:36;63.47;;;37.90;;
19509;SDS011;9896;42.486;26.506;2023-01-08T09:57:01;64.13;;;38.37;;
19509;SDS011;9896;42.486;26.506;2023-01-08T09:59:27;63.67;;;37.97;;
19509;SDS011;9896;42.486;26.506;2023-01-08T10:01:52;63.87;;;37.57;;
19509;SDS011;9896;42.486;26.506;2023-01-08T10:04:19;66.27;;;35.37;;
19509;SDS011;9896;42.486;26.506;2023-01-08T10:06:49;42.83;;;26.00;;
19509;SDS011;9896;42.486;26.506;2023-01-08T10:09:15;37.23;;;23.93;;
19509;SDS011;9896;42.486;26.506;2023-01-08T10:11:42;45.93;;;26.73;;
19509;SDS011;9896;42.486;26.506;2023-01-08T10:14:31;33.50;;;22.97;;
19509;SDS011;9896;42.486;26.506;2023-01-08T10:16:58;40.70;;;21.97;;
19509;SDS011;9896;42.486;26.506;2023-01-08T10:19:24;33.23;;;18.10;;
19509;SDS011;9896;42.486;26.506;2023-01-08T10:21:50;30.33;;;18.57;;
19509;SDS011;9896;42.486;26.506;2023-01-08T10:24:16;34.30;;;19.77;;
19509;SDS011;9896;42.486;26.506;2023-01-08T10:26:41;39.27;;;23.43;;
19509;SDS011;9896;42.486;26.506;2023-01-08T10:31:44;22.90;;;14.33;;
19509;SDS011;9896;42.486;26.506;2023-01-08T10:34:11;22.83;;;14.17;;
19509;SDS011;9896;42.486;26.506;2023-01-08T10:36:42;20.83;;;14.10;;
19509;SDS011;9896;42.486;26.506;2023-01-08T10:39:12;23.30;;;14.27;;
19509;SDS011;9896;42.486;26.506;2023-01-08T10:41:41;21.13;;;13.93;;
19509;SDS011;9896;42.486;26.506;2023-01-08T10:44:13;22.10;;;12.80;;
19509;SDS011;9896;42.486;26.506;2023-01-08T10:46:43;22.80;;;13.23;;
19509;SDS011;9896;42.486;26.506;2023-01-08T10:49:15;20.70;;;12.67;;
19509;SDS011;9896;42.486;26.506;2023-01-08T10:51:47;17.50;;;10.83;;
19509;SDS011;9896;42.486;26.506;2023-01-08T10:54:14;14.60;;;9.83;;
19509;SDS011;9896;42.486;26.506;2023-01-08T10:56:45;18.37;;;11.10;;
19509;SDS011;9896;42.486;26.506;2023-01-08T10:59:19;20.87;;;12.43;;
19509;SDS011;9896;42.486;26.506;2023-01-08T11:01:45;19.73;;;11.83;;
19509;SDS011;9896;42.486;26.506;2023-01-08T11:04:17;21.40;;;12.30;;
19509;SDS011;9896;42.486;26.506;2023-01-08T11:06:45;22.57;;;11.23;;
19509;SDS011;9896;42.486;26.506;2023-01-08T11:09:21;18.97;;;10.70;;
19509;SDS011;9896;42.486;26.506;2023-01-08T11:11:47;20.70;;;10.77;;
19509;SDS011;9896;42.486;26.506;2023-01-08T11:14:19;15.07;;;10.03;;
19509;SDS011;9896;42.486;26.506;2023-01-08T11:16:46;23.53;;;12.97;;
19509;SDS011;9896;42.486;26.506;2023-01-08T11:19:15;21.50;;;13.00;;
19509;SDS011;9896;42.486;26.506;2023-01-08T11:21:41;18.73;;;11.53;;
19509;SDS011;9896;42.486;26.506;2023-01-08T11:26:37;21.30;;;11.30;;
19509;SDS011;9896;42.486;26.506;2023-01-08T11:29:16;18.13;;;11.40;;
19509;SDS011;9896;42.486;26.506;2023-01-08T11:31:43;16.37;;;11.17;;
19509;SDS011;9896;42.486;26.506;2023-01-08T11:36:41;15.97;;;10.53;;
19509;SDS011;9896;42.486;26.506;2023-01-08T11:39:08;21.13;;;11.20;;
19509;SDS011;9896;42.486;26.506;2023-01-08T11:44:42;16.77;;;10.60;;
19509;SDS011;9896;42.486;26.506;2023-01-08T11:47:14;18.23;;;11.23;;
19509;SDS011;9896;42.486;26.506;2023-01-08T11:49:48;16.00;;;11.50;;
19509;SDS011;9896;42.486;26.506;2023-01-08T11:52:23;17.97;;;12.40;;
19509;SDS011;9896;42.486;26.506;2023-01-08T12:00:23;23.57;;;13.87;;
19509;SDS011;9896;42.486;26.506;2023-01-08T12:02:54;21.23;;;13.67;;
19509;SDS011;9896;42.486;26.506;2023-01-08T12:08:05;19.73;;;12.13;;
19509;SDS011;9896;42.486;26.506;2023-01-08T12:10:37;22.67;;;13.60;;
19509;SDS011;9896;42.486;26.506;2023-01-08T12:13:18;19.87;;;11.53;;
19509;SDS011;9896;42.486;26.506;2023-01-08T12:18:39;17.70;;;10.80;;
19509;SDS011;9896;42.486;26.506;2023-01-08T12:26:17;19.53;;;10.77;;
19509;SDS011;9896;42.486;26.506;2023-01-08T12:28:51;13.57;;;9.00;;
19509;SDS011;9896;42.486;26.506;2023-01-08T12:34:08;17.73;;;9.60;;
19509;SDS011;9896;42.486;26.506;2023-01-08T12:36:36;14.97;;;9.40;;
19509;SDS011;9896;42.486;26.506;2023-01-08T12:39:09;12.73;;;8.77;;
19509;SDS011;9896;42.486;26.506;2023-01-08T12:41:36;14.13;;;8.83;;
19509;SDS011;9896;42.486;26.506;2023-01-08T12:44:04;13.50;;;8.97;;
19509;SDS011;9896;42.486;26.506;2023-01-08T12:46:31;10.57;;;8.13;;
19509;SDS011;9896;42.486;26.506;2023-01-08T12:48:57;15.23;;;8.20;;
19509;SDS011;9896;42.486;26.506;2023-01-08T12:51:30;11.80;;;8.23;;
19509;SDS011;9896;42.486;26.506;2023-01-08T12:56:42;12.30;;;7.37;;
19509;SDS011;9896;42.486;26.506;2023-01-08T12:59:14;9.87;;;7.10;;
19509;SDS011;9896;42.486;26.506;2023-01-08T13:04:08;11.20;;;8.40;;
19509;SDS011;9896;42.486;26.506;2023-01-08T13:06:33;14.50;;;9.23;;
19509;SDS011;9896;42.486;26.506;2023-01-08T13:08:59;10.27;;;7.17;;
19509;SDS011;9896;42.486;26.506;2023-01-08T13:11:25;10.40;;;7.33;;
19509;SDS011;9896;42.486;26.506;2023-01-08T13:13:59;12.23;;;8.07;;
19509;SDS011;9896;42.486;26.506;2023-01-08T13:16:25;11.47;;;7.80;;
19509;SDS011;9896;42.486;26.506;2023-01-08T13:18:57;13.27;;;8.47;;
19509;SDS011;9896;42.486;26.506;2023-01-08T13:24:31;12.30;;;8.83;;
19509;SDS011;9896;42.486;26.506;2023-01-08T13:29:37;13.17;;;8.93;;
19509;SDS011;9896;42.486;26.506;2023-01-08T13:32:03;15.87;;;9.10;;
19509;SDS011;9896;42.486;26.506;2023-01-08T13:34:35;15.17;;;9.30;;
19509;SDS011;9896;42.486;26.506;2023-01-08T13:37:01;10.93;;;7.20;;
19509;SDS011;9896;42.486;26.506;2023-01-08T13:39:34;12.07;;;7.73;;
19509;SDS011;9896;42.486;26.506;2023-01-08T13:44:56;10.50;;;8.00;;
19509;SDS011;9896;42.486;26.506;2023-01-08T13:47:26;10.73;;;7.83;;
19509;SDS011;9896;42.486;26.506;2023-01-08T13:49:53;13.00;;;6.90;;
19509;SDS011;9896;42.486;26.506;2023-01-08T13:55:22;15.53;;;9.50;;
19509;SDS011;9896;42.486;26.506;2023-01-08T13:57:50;11.93;;;8.67;;
19509;SDS011;9896;42.486;26.506;2023-01-08T14:00:17;13.37;;;8.27;;
19509;SDS011;9896;42.486;26.506;2023-01-08T14:02:44;13.97;;;8.00;;
19509;SDS011;9896;42.486;26.506;2023-01-08T14:05:30;16.60;;;8.33;;
19509;SDS011;9896;42.486;26.506;2023-01-08T14:07:58;11.67;;;9.03;;
19509;SDS011;9896;42.486;26.506;2023-01-08T14:10:24;14.17;;;8.50;;
19509;SDS011;9896;42.486;26.506;2023-01-08T14:12:50;11.97;;;8.43;;
19509;SDS011;9896;42.486;26.506;2023-01-08T14:15:25;15.70;;;10.50;;
19509;SDS011;9896;42.486;26.506;2023-01-08T14:17:51;18.40;;;10.37;;
19509;SDS011;9896;42.486;26.506;2023-01-08T14:20:23;16.30;;;8.73;;
19509;SDS011;9896;42.486;26.506;2023-01-08T14:22:51;14.27;;;8.17;;
19509;SDS011;9896;42.486;26.506;2023-01-08T14:25:17;14.17;;;8.83;;
19509;SDS011;9896;42.486;26.506;2023-01-08T14:27:53;14.90;;;8.10;;
19509;SDS011;9896;42.486;26.506;2023-01-08T14:30:19;10.80;;;7.50;;
19509;SDS011;9896;42.486;26.506;2023-01-08T14:32:45;14.83;;;7.90;;
19509;SDS011;9896;42.486;26.506;2023-01-08T14:35:13;11.60;;;7.03;;
19509;SDS011;9896;42.486;26.506;2023-01-08T14:37:40;9.50;;;7.20;;
19509;SDS011;9896;42.486;26.506;2023-01-08T14:40:12;12.70;;;7.60;;
19509;SDS011;9896;42.486;26.506;2023-01-08T14:42:37;11.23;;;6.80;;
19509;SDS011;9896;42.486;26.506;2023-01-08T14:45:18;10.10;;;6.77;;
19509;SDS011;9896;42.486;26.506;2023-01-08T14:47:45;12.60;;;7.50;;
19509;SDS011;9896;42.486;26.506;2023-01-08T14:53:06;14.53;;;7.77;;
19509;SDS011;9896;42.486;26.506;2023-01-08T14:55:33;9.80;;;6.40;;
19509;SDS011;9896;42.486;26.506;2023-01-08T14:57:59;8.60;;;6.13;;
19509;SDS011;9896;42.486;26.506;2023-01-08T15:00:28;13.37;;;6.10;;
19509;SDS011;9896;42.486;26.506;2023-01-08T15:02:54;20.93;;;9.73;;
19509;SDS011;9896;42.486;26.506;2023-01-08T15:05:27;12.97;;;7.67;;
19509;SDS011;9896;42.486;26.506;2023-01-08T15:08:18;11.30;;;7.73;;
19509;SDS011;9896;42.486;26.506;2023-01-08T15:10:39;23.80;;;12.83;;
19509;SDS011;9896;42.486;26.506;2023-01-08T15:13:05;19.97;;;11.03;;
19509;SDS011;9896;42.486;26.506;2023-01-08T15:15:35;18.10;;;10.03;;
19509;SDS011;9896;42.486;26.506;2023-01-08T15:18:05;19.43;;;10.20;;
19509;SDS011;9896;42.486;26.506;2023-01-08T15:20:32;17.53;;;9.83;;
19509;SDS011;9896;42.486;26.506;2023-01-08T15:22:58;22.87;;;12.27;;
19509;SDS011;9896;42.486;26.506;2023-01-08T15:25:27;33.67;;;16.87;;
19509;SDS011;9896;42.486;26.506;2023-01-08T15:28:00;43.73;;;21.30;;
19509;SDS011;9896;42.486;26.506;2023-01-08T15:30:36;39.70;;;19.90;;